Latest Weather Observations for Clermont Airport

IDQ60801

Issued at 11:35 pm EST Friday 24 October 2014 (issued every 30 minutes, with the page automatically refreshed every 10 minutes)

About weather observations | Map of weather stations | Latest weather observations for QLD | Other Formats
Station Details ID: 035124 Name: CLERMONT AIRPORT Lat: -22.78 Lon: 147.62 Height: 270.27 m
Data from the previous 72 hours. | See also: Recent months at Clermont Airport
Date/Time
EST
Temp
°C
App
Temp
°C
Dew
Point
Rel
Hum
%
Delta-T
°C
Wind Press
QNH
hPa
Press
MSL
hPa
Rain
since 9 am
mm
Dir
 
Spd
km/h
Gust
km/h
Spd
kts
Gust
kts
24/11:30pm 20.4 19.0 9.0 48 6.1 N 6 11 3 6 1020.4 1019.1 0.0
24/11:00pm 20.8 19.6 9.4 48 6.1 NNE 6 7 3 4 1020.5 1019.2 0.0
24/10:30pm 22.1 20.7 8.9 43 7.1 NNE 6 9 3 5 1020.6 1019.3 0.0
24/10:00pm 22.5 20.5 7.1 37 8.0 NNE 7 15 4 8 1020.4 1019.1 0.0
24/09:30pm 23.5 21.4 8.4 38 8.1 NNE 9 17 5 9 1020.2 1018.9 0.0
24/09:00pm 25.1 23.2 9.0 36 8.8 NNE 9 20 5 11 1019.8 1018.4 0.0
24/08:30pm 24.6 22.8 8.1 35 8.9 NE 7 11 4 6 1019.3 1017.9 0.0
24/08:00pm 24.9 24.2 7.1 32 9.4 CALM 0 0 0 0 1018.7 1017.3 0.0
24/07:30pm 26.6 25.3 7.6 30 10.3 E 4 7 2 4 1018.5 1017.1 0.0
24/07:00pm 27.7 26.4 7.5 28 10.9 ESE 4 9 2 5 1018.2 1016.8 0.0
24/06:30pm 28.9 27.2 7.5 26 11.7 ESE 6 11 3 6 1017.8 1016.5 0.0
24/06:00pm 30.4 27.8 7.6 24 12.5 ESE 11 20 6 11 1017.5 1016.2 0.0
24/05:30pm 30.9 27.8 7.4 23 12.9 E 13 28 7 15 1017.1 1015.8 0.0
24/05:00pm 31.4 28.3 7.1 22 13.3 E 13 26 7 14 1016.8 1015.5 0.0
24/04:30pm 31.8 28.8 7.5 22 13.5 SE 13 20 7 11 1016.6 1015.3 0.0
24/04:00pm 31.9 28.2 6.2 20 13.9 ESE 15 26 8 14 1016.7 1015.4 0.0
24/03:30pm 32.2 27.8 6.4 20 14.1 ESE 19 26 10 14 1016.8 1015.5 0.0
24/03:00pm 32.6 29.5 7.4 21 14.0 E 13 30 7 16 1016.8 1015.5 0.0
24/02:30pm 32.3 28.6 6.5 20 14.1 ESE 15 30 8 16 1017.0 1015.7 0.0
24/02:00pm 32.8 29.4 7.6 21 14.0 ESE 15 33 8 18 1017.5 1016.2 0.0
24/01:30pm 31.8 26.9 6.8 21 13.7 ESE 22 33 12 18 1017.9 1016.6 0.0
24/01:00pm 31.3 27.5 7.7 23 13.1 ESE 17 30 9 16 1018.5 1017.1 0.0
24/12:30pm 30.9 27.4 8.6 25 12.5 ESE 17 28 9 15 1019.1 1017.7 0.0
24/12:00pm 30.7 27.8 9.6 27 12.0 ESE 15 24 8 13 1019.5 1018.1 0.0
24/11:30am 30.0 27.8 9.5 28 11.6 ESE 11 26 6 14 1020.0 1018.7 0.0
24/11:00am 29.0 26.9 9.7 30 10.9 ESE 11 22 6 12 1020.5 1019.2 0.0
24/10:30am 27.9 25.8 9.7 32 10.3 ESE 11 20 6 11 1020.9 1019.6 0.0
24/10:00am 26.3 24.3 10.0 36 9.1 ESE 11 20 6 11 1021.3 1020.0 0.0
24/09:30am 25.1 24.0 9.8 38 8.5 ESE 6 11 3 6 1022.0 1020.6 0.0
24/09:00am 23.6 22.6 8.8 39 8.0 E 4 9 2 5 1022.3 1020.9 -
24/08:30am 22.9 22.6 10.0 44 7.1 E 2 9 1 5 1022.3 1020.9 -
24/08:00am 21.6 20.7 9.2 45 6.7 ENE 4 6 2 3 1022.3 1020.9 -
24/07:30am 20.0 19.7 8.7 48 6.0 CALM 0 2 0 1 1022.2 1020.8 -
24/07:00am 17.9 17.2 8.5 54 4.9 WNW 2 4 1 2 1022.0 1020.6 -
24/06:30am 14.9 14.5 8.2 64 3.4 CALM 0 0 0 0 1021.7 1020.4 -
24/06:00am 12.1 11.5 7.4 73 2.3 CALM 0 0 0 0 1021.1 1019.8 -
24/05:30am 11.4 10.7 6.9 74 2.2 CALM 0 0 0 0 1020.9 1019.6 -
24/05:00am 11.6 10.4 6.5 71 2.4 W 2 4 1 2 1020.4 1019.1 -
24/04:30am 12.4 11.3 6.9 69 2.7 WSW 2 2 1 1 1020.1 1018.8 -
24/04:00am 12.5 11.8 6.8 68 2.8 CALM 0 0 0 0 1019.9 1018.6 -
24/03:30am 13.1 12.4 6.9 66 3.0 SW 0 0 0 0 1019.7 1018.3 -
24/03:00am 14.1 13.1 7.2 63 3.4 WSW 2 7 1 4 1019.6 1018.2 0.0
24/02:30am 15.9 14.6 7.7 58 4.2 WNW 4 6 2 3 1019.5 1018.1 -
24/02:00am 18.6 16.7 7.7 49 5.6 N 7 13 4 7 1019.5 1018.1 -
24/01:30am 19.0 17.2 8.1 49 5.7 N 7 11 4 6 1019.6 1018.2 -
24/01:00am 19.2 17.5 8.2 49 5.7 N 7 13 4 7 1019.8 1018.4 -
24/12:30am 19.5 17.8 8.2 48 5.9 NNE 7 13 4 7 1020.0 1018.7 -
24/12:00am 19.3 17.7 8.6 50 5.6 N 7 11 4 6 1020.1 1018.8 -
 
Date/Time
EST
Temp
°C
App
Temp
°C
Dew
Point
Rel
Hum
%
Delta-T
°C
Wind Press
QNH
hPa
Press
MSL
hPa
Rain
since 9 am
mm
Dir
 
Spd
km/h
Gust
km/h
Spd
kts
Gust
kts
23/11:30pm 20.3 18.8 8.6 47 6.2 NNE 6 9 3 5 1020.2 1018.9 -
23/11:00pm 19.8 18.2 7.9 46 6.2 NNE 6 9 3 5 1020.3 1019.0 -
23/10:30pm 19.6 17.7 6.7 43 6.6 NNE 6 7 3 4 1020.3 1019.0 -
23/10:00pm 19.8 17.5 5.5 39 7.1 NNE 7 9 4 5 1020.0 1018.7 -
23/09:30pm 19.0 16.5 4.7 39 7.0 NNE 7 9 4 5 1019.8 1018.4 -
23/09:00pm 19.9 18.6 4.0 35 7.7 CALM 0 0 0 0 1019.3 1017.9 0.0
23/08:30pm 21.6 20.2 3.3 30 8.9 CALM 0 0 0 0 1019.0 1017.6 -
23/08:00pm 22.9 21.0 2.9 27 9.7 ENE 2 6 1 3 1018.6 1017.2 -
23/07:30pm 23.6 22.1 3.0 26 10.1 CALM 0 0 0 0 1018.4 1017.0 -
23/07:00pm 25.6 23.3 2.9 23 11.2 E 4 6 2 3 1018.2 1016.8 -
23/06:30pm 26.9 24.3 3.4 22 11.8 ESE 6 9 3 5 1017.6 1016.3 -
23/06:00pm 28.4 24.9 3.3 20 12.7 ESE 11 20 6 11 1017.4 1016.1 -
23/05:30pm 29.3 25.2 2.5 18 13.5 SE 13 22 7 12 1017.1 1015.8 -
23/05:00pm 29.7 25.7 2.9 18 13.6 ESE 13 30 7 16 1016.9 1015.6 -
23/04:30pm 30.2 25.5 3.3 18 13.8 SSE 17 26 9 14 1016.6 1015.3 -
23/04:00pm 30.0 25.8 3.9 19 13.5 ESE 15 22 8 12 1016.6 1015.3 -
23/03:30pm 30.0 25.4 3.9 19 13.5 E 17 28 9 15 1016.7 1015.4 -
23/03:00pm 30.4 26.2 5.6 21 13.2 SE 17 28 9 15 1016.9 1015.6 -
23/02:30pm 30.3 26.5 5.6 21 13.2 E 15 30 8 16 1017.1 1015.8 -
23/02:00pm 29.9 24.9 3.8 19 13.4 SE 19 28 10 15 1017.4 1016.1 -
23/09:00am 22.8 21.6 11.5 49 6.4 ESE 9 17 5 9 1022.0 1020.6 0.0
23/08:30am 21.5 21.2 11.5 53 5.6 SE 4 9 2 5 1022.3 1020.9 0.0
23/08:00am 20.6 20.1 12.1 58 4.8 SSE 6 11 3 6 1022.1 1020.7 0.0
23/07:30am 19.5 19.1 12.3 63 4.1 ESE 6 9 3 5 1022.0 1020.6 0.0
23/07:00am 18.3 17.8 12.5 69 3.3 SE 7 11 4 6 1021.7 1020.4 0.0
23/06:30am 16.7 17.3 13.0 79 2.1 SSE 2 6 1 3 1021.5 1020.2 0.0
23/06:00am 13.4 13.5 11.6 89 1.0 SSW 2 4 1 2 1021.5 1020.2 0.0
23/05:30am 12.7 13.1 11.1 90 0.9 CALM 0 0 0 0 1021.2 1019.9 0.0
23/05:00am 13.0 13.2 10.7 86 1.2 CALM 0 0 0 0 1020.9 1019.6 0.0
23/04:30am 13.6 14.1 11.5 87 1.1 CALM 0 6 0 3 1020.6 1019.3 0.0
23/04:00am 14.1 14.7 11.8 86 1.2 CALM 0 0 0 0 1020.4 1019.1 0.0
23/03:30am 14.5 14.7 11.8 84 1.5 SSW 2 4 1 2 1020.4 1019.1 0.0
23/03:00am 15.4 16.0 12.0 80 1.9 CALM 0 0 0 0 1020.4 1019.1 0.0
23/02:30am 16.2 16.6 12.4 78 2.1 ENE 2 4 1 2 1020.6 1019.3 0.0
23/02:00am 17.3 18.2 13.0 76 2.4 CALM 0 2 0 1 1020.8 1019.5 0.0
23/01:30am 17.9 18.2 13.4 75 2.6 NNE 4 6 2 3 1021.1 1019.8 0.0
23/01:00am 18.7 19.1 13.6 72 2.9 NNE 4 9 2 5 1021.2 1019.9 0.0
23/12:30am 19.3 19.2 13.9 71 3.1 NE 7 15 4 8 1021.1 1019.8 0.0
23/12:00am 19.6 19.5 13.8 69 3.4 NNE 7 13 4 7 1021.0 1019.7 0.0
 
Date/Time
EST
Temp
°C
App
Temp
°C
Dew
Point
Rel
Hum
%
Delta-T
°C
Wind Press
QNH
hPa
Press
MSL
hPa
Rain
since 9 am
mm
Dir
 
Spd
km/h
Gust
km/h
Spd
kts
Gust
kts
22/11:30pm 19.7 18.9 12.9 65 3.9 NNE 9 11 5 6 1021.0 1019.7 0.0
22/11:00pm 19.5 18.9 11.8 61 4.3 NNE 6 9 3 5 1020.9 1019.6 0.0
22/10:30pm 21.1 20.5 12.3 57 5.0 NNE 7 13 4 7 1020.6 1019.3 0.0
22/10:00pm 21.1 19.7 9.0 46 6.5 NE 6 9 3 5 1020.4 1019.1 0.0
22/09:30pm 19.9 19.6 8.6 48 6.0 CALM 0 0 0 0 1019.9 1018.6 0.0
22/09:00pm 21.4 21.0 8.3 43 6.9 CALM 0 2 0 1 1019.7 1018.3 0.0
22/08:30pm 21.9 21.5 8.1 41 7.3 CALM 0 4 0 2 1019.5 1018.1 0.0
22/08:00pm 23.4 22.5 7.9 37 8.2 E 2 4 1 2 1019.4 1018.0 0.0
22/07:30pm 24.3 23.8 7.9 35 8.8 CALM 0 2 0 1 1019.2 1017.8 0.0
22/07:00pm 25.4 24.2 8.0 33 9.4 E 4 6 2 3 1019.1 1017.7 0.0
22/06:30pm 26.8 25.3 8.3 31 10.1 ESE 6 11 3 6 1018.9 1017.5 0.0
22/06:00pm 27.7 25.9 8.1 29 10.7 E 7 13 4 7 1018.8 1017.4 0.0
22/05:30pm 28.6 25.6 7.8 27 11.4 ESE 13 22 7 12 1018.6 1017.2 0.0
22/05:00pm 28.9 25.2 8.0 27 11.5 SE 17 26 9 14 1018.3 1016.9 0.0
22/04:30pm 29.4 25.4 6.7 24 12.3 SE 17 28 9 15 1018.2 1016.8 0.0
22/04:00pm 30.1 26.9 8.5 26 12.0 ESE 15 30 8 16 1018.2 1016.8 0.0
22/03:30pm 30.1 26.6 10.1 29 11.5 SSE 19 32 10 17 1018.2 1016.8 0.0
22/03:00pm 29.0 26.6 10.2 31 10.7 E 13 28 7 15 1018.4 1017.0 0.0
22/02:30pm 29.4 27.0 10.0 30 11.1 SE 13 24 7 13 1018.7 1017.3 0.0
22/02:00pm 29.4 27.0 11.5 33 10.4 SE 15 26 8 14 1019.3 1017.9 0.0
22/01:30pm 28.9 28.2 11.9 35 10.0 SE 7 20 4 11 1019.7 1018.3 0.0
22/01:00pm 27.4 25.1 10.6 35 9.6 ESE 13 26 7 14 1020.2 1018.9 0.0
22/12:30pm 28.5 27.3 11.6 35 9.8 E 9 17 5 9 1020.8 1019.5 0.0
22/12:00pm 26.9 24.5 11.4 38 8.9 SE 15 26 8 14 1021.3 1020.0 0.0
22/11:30am 27.3 25.9 12.1 39 8.9 E 11 24 6 13 1022.0 1020.6 0.0
22/11:00am 26.7 25.6 13.1 43 8.0 E 11 20 6 11 1022.5 1021.1 0.0
22/10:30am 25.7 24.3 12.2 43 7.8 ENE 11 24 6 13 1023.0 1021.6 0.0
22/10:00am 25.4 23.4 12.6 45 7.5 E 15 32 8 17 1023.4 1022.1 0.0
22/09:30am 24.4 23.3 13.0 49 6.7 E 11 28 6 15 1023.6 1022.3 0.0
22/09:00am 23.6 21.7 12.9 51 6.2 ENE 15 30 8 16 1023.7 1022.4 0.0
22/08:30am 22.0 21.5 12.8 56 5.3 E 7 17 4 9 1024.0 1022.7 0.0
22/08:00am 20.6 20.1 12.6 60 4.6 E 7 13 4 7 1024.0 1022.7 0.0
22/07:30am 19.5 18.9 12.3 63 4.1 ESE 7 13 4 7 1023.8 1022.5 0.0
22/07:00am 18.3 17.6 11.4 64 3.8 SSE 6 9 3 5 1023.7 1022.4 0.0
22/06:30am 16.5 15.4 10.6 68 3.2 S 7 11 4 6 1023.6 1022.3 0.0
22/06:00am 14.5 13.1 9.7 73 2.5 S 7 7 4 4 1023.3 1022.0 0.0
22/05:30am 12.6 11.1 8.3 75 2.2 S 6 7 3 4 1022.9 1021.5 0.0
22/05:00am 13.1 11.6 8.6 74 2.3 S 6 7 3 4 1022.6 1021.2 0.0
22/04:30am 12.9 11.5 8.8 76 2.1 S 6 7 3 4 1022.4 1021.0 0.0
22/04:00am 12.8 12.3 9.3 79 1.8 SSE 2 6 1 3 1022.4 1021.0 0.0
22/03:30am 14.0 13.9 9.4 74 2.4 CALM 0 0 0 0 1022.3 1020.9 0.0
22/03:00am 14.5 14.3 9.1 70 2.8 CALM 0 0 0 0 1022.3 1020.9 0.0
22/02:30am 15.8 15.8 9.7 67 3.2 CALM 0 2 0 1 1022.3 1020.9 0.0
22/02:00am 16.4 16.2 10.3 67 3.3 E 2 4 1 2 1022.4 1021.0 0.0
22/01:30am 16.4 16.2 10.5 68 3.2 E 2 4 1 2 1022.8 1021.4 0.0
22/01:00am 17.6 17.5 10.7 64 3.7 E 2 4 1 2 1023.1 1021.7 0.0
22/12:30am 18.3 18.2 10.7 61 4.1 E 2 6 1 3 1023.3 1022.0 0.0
22/12:00am 17.8 17.9 10.2 61 4.1 CALM 0 7 0 4 1023.5 1022.2 0.0

Other Formats:

Comma delimited format used in spreadsheet applications
http://www.bom.gov.au/fwo/IDQ60801/IDQ60801.94395.axf

JavaScript Object Notation format (JSON) in row-major order
http://www.bom.gov.au/fwo/IDQ60801/IDQ60801.94395.json